createdAt,value
2019-01-15T00:00:56.168Z,0.60
2019-01-15T00:02:00.873Z,0.60
2019-01-15T00:03:05.827Z,0.60
2019-01-15T00:04:10.717Z,0.60
2019-01-15T00:05:15.484Z,0.60
2019-01-15T00:06:20.267Z,0.50
2019-01-15T00:07:25.017Z,0.50
2019-01-15T00:08:29.784Z,0.50
2019-01-15T00:09:34.553Z,0.40
2019-01-15T00:10:39.396Z,0.40
2019-01-15T00:11:44.170Z,0.40
2019-01-15T00:12:48.921Z,0.50
2019-01-15T00:13:53.696Z,0.50
2019-01-15T00:14:58.437Z,0.60
2019-01-15T00:16:03.189Z,0.60
2019-01-15T00:17:07.971Z,0.60
2019-01-15T00:18:12.654Z,0.60
2019-01-15T00:19:17.396Z,0.60
2019-01-15T00:20:22.179Z,0.70
2019-01-15T00:21:26.975Z,0.70
2019-01-15T00:22:31.717Z,0.80
2019-01-15T00:23:36.461Z,0.70
2019-01-15T00:24:41.188Z,0.70
2019-01-15T00:25:45.969Z,0.60
2019-01-15T00:26:50.709Z,0.70
2019-01-15T00:27:55.465Z,0.70
2019-01-15T00:29:00.220Z,0.70
2019-01-15T00:30:06.557Z,0.80
2019-01-15T00:31:11.336Z,0.70
2019-01-15T00:32:16.076Z,0.70
2019-01-15T00:33:20.818Z,0.70
2019-01-15T00:34:25.531Z,0.70
2019-01-15T00:35:30.271Z,0.70
2019-01-15T00:36:35.058Z,0.70
2019-01-15T00:37:39.783Z,0.80
2019-01-15T00:38:44.540Z,0.80
2019-01-15T00:39:49.296Z,0.80
2019-01-15T00:40:54.054Z,0.80
2019-01-15T00:41:58.792Z,0.80
2019-01-15T00:43:03.546Z,0.80
2019-01-15T00:44:08.361Z,0.90
2019-01-15T00:45:13.453Z,0.90
2019-01-15T00:46:18.229Z,0.90
2019-01-15T00:47:23.007Z,0.90
2019-01-15T00:48:27.839Z,0.90
2019-01-15T00:49:32.553Z,0.90
2019-01-15T00:50:37.308Z,0.90
2019-01-15T00:51:42.087Z,0.90
2019-01-15T00:52:46.806Z,0.90
2019-01-15T00:53:51.548Z,0.90
2019-01-15T00:54:56.304Z,0.90
2019-01-15T00:56:01.082Z,0.90
2019-01-15T00:57:05.822Z,0.90
2019-01-15T00:58:10.569Z,0.90
2019-01-15T00:59:15.316Z,0.90
2019-01-15T01:00:22.226Z,0.90
2019-01-15T01:01:26.978Z,0.90
2019-01-15T01:02:31.841Z,0.90
2019-01-15T01:03:36.593Z,0.90
2019-01-15T01:04:41.332Z,0.90
2019-01-15T01:05:46.191Z,0.90
2019-01-15T01:06:51.073Z,0.90
2019-01-15T01:07:55.805Z,1.00
2019-01-15T01:09:00.571Z,1.10
2019-01-15T01:10:06.485Z,1.10
2019-01-15T01:11:11.284Z,1.10
2019-01-15T01:12:22.165Z,1.10
2019-01-15T01:13:22.504Z,1.10
2019-01-15T01:14:27.289Z,1.20
2019-01-15T01:15:32.334Z,1.20
2019-01-15T01:16:37.151Z,1.20
2019-01-15T01:17:41.866Z,1.20
2019-01-15T01:18:46.611Z,1.20
2019-01-15T01:19:51.332Z,1.20
2019-01-15T01:20:56.072Z,1.20
2019-01-15T01:22:00.834Z,1.20
2019-01-15T01:23:06.026Z,1.20
2019-01-15T01:24:10.717Z,1.10
2019-01-15T01:25:15.659Z,1.20
2019-01-15T01:26:20.450Z,1.20
2019-01-15T01:27:25.183Z,1.10
2019-01-15T01:28:29.923Z,1.10
2019-01-15T01:29:34.702Z,1.10
2019-01-15T01:30:39.423Z,1.10
2019-01-15T01:31:44.190Z,1.10
2019-01-15T01:32:49.028Z,1.10
2019-01-15T01:33:54.009Z,1.10
2019-01-15T01:34:58.759Z,1.10
2019-01-15T01:36:03.487Z,1.00
2019-01-15T01:37:08.256Z,1.00
2019-01-15T01:38:12.985Z,1.00
2019-01-15T01:39:17.753Z,1.00
2019-01-15T01:40:22.474Z,0.90
2019-01-15T01:41:27.234Z,0.90
2019-01-15T01:42:31.935Z,0.90
2019-01-15T01:43:36.650Z,0.90
2019-01-15T01:44:41.360Z,1.00
2019-01-15T01:45:46.184Z,1.00
2019-01-15T01:46:50.943Z,1.00
2019-01-15T01:47:55.870Z,1.00
2019-01-15T01:49:00.614Z,0.90
2019-01-15T01:50:06.161Z,0.90
2019-01-15T01:51:10.903Z,0.80
2019-01-15T01:52:15.659Z,0.90
2019-01-15T01:53:20.382Z,0.90
2019-01-15T01:54:25.161Z,0.90
2019-01-15T01:55:29.888Z,0.90
2019-01-15T01:56:34.687Z,0.90
2019-01-15T01:57:39.422Z,0.90
2019-01-15T01:58:44.238Z,0.90
2019-01-15T01:59:48.981Z,0.90
2019-01-15T02:00:53.740Z,0.90
2019-01-15T02:01:58.660Z,0.90
2019-01-15T02:03:03.360Z,0.90
2019-01-15T02:04:08.108Z,0.90
2019-01-15T02:05:12.933Z,0.80
2019-01-15T02:06:17.723Z,0.80
2019-01-15T02:07:22.521Z,0.90
2019-01-15T02:08:27.324Z,0.90
2019-01-15T02:09:32.088Z,0.90
2019-01-15T02:10:36.863Z,0.90
2019-01-15T02:11:41.714Z,0.90
2019-01-15T02:12:47.048Z,0.90
2019-01-15T02:13:51.884Z,0.80
2019-01-15T02:14:56.634Z,0.80
2019-01-15T02:16:01.380Z,0.80
2019-01-15T02:17:06.182Z,0.80
2019-01-15T02:18:10.942Z,0.80
2019-01-15T02:19:15.701Z,0.80
2019-01-15T02:20:20.933Z,0.70
2019-01-15T02:21:25.658Z,0.70
2019-01-15T02:22:30.449Z,0.70
2019-01-15T02:23:35.191Z,0.70
2019-01-15T02:24:40.060Z,0.70
2019-01-15T02:25:44.819Z,0.60
2019-01-15T02:26:49.674Z,0.60
2019-01-15T02:27:54.892Z,0.60
2019-01-15T02:28:59.646Z,0.60
2019-01-15T02:30:05.437Z,0.60
2019-01-15T02:31:10.273Z,0.60
2019-01-15T02:32:15.033Z,0.60
2019-01-15T02:33:19.806Z,0.60
2019-01-15T02:34:24.537Z,0.60
2019-01-15T02:35:29.452Z,0.60
2019-01-15T02:36:34.199Z,0.70
2019-01-15T02:37:39.000Z,0.70
2019-01-15T02:38:43.738Z,0.70
2019-01-15T02:39:48.468Z,0.60
2019-01-15T02:40:53.549Z,0.70
2019-01-15T02:41:58.324Z,0.70
2019-01-15T02:43:03.100Z,0.70
2019-01-15T02:44:07.984Z,0.70
2019-01-15T02:45:14.153Z,0.70
2019-01-15T02:46:18.907Z,0.70
2019-01-15T02:47:23.672Z,0.70
2019-01-15T02:48:28.433Z,0.60
2019-01-15T02:49:33.182Z,0.60
2019-01-15T02:50:38.023Z,0.60
2019-01-15T02:51:42.800Z,0.60
2019-01-15T02:52:47.660Z,0.50
2019-01-15T02:53:52.400Z,0.50
2019-01-15T02:54:57.151Z,0.50
2019-01-15T02:56:01.958Z,0.50
2019-01-15T02:57:06.734Z,0.50
2019-01-15T02:58:11.512Z,0.50
2019-01-15T02:59:16.211Z,0.50
2019-01-15T03:00:26.188Z,0.60
2019-01-15T03:01:30.923Z,0.60
2019-01-15T03:02:35.680Z,0.60
2019-01-15T03:03:40.409Z,0.60
2019-01-15T03:04:45.150Z,0.60
2019-01-15T03:05:50.285Z,0.60
2019-01-15T03:06:55.039Z,0.60
2019-01-15T03:07:59.760Z,0.60
2019-01-15T03:09:07.070Z,0.60
2019-01-15T03:10:13.318Z,0.60
2019-01-15T03:11:18.061Z,0.60
2019-01-15T03:12:22.841Z,0.60
2019-01-15T03:13:27.572Z,0.60
2019-01-15T03:14:32.312Z,0.60
2019-01-15T03:15:37.066Z,0.60
2019-01-15T03:16:41.839Z,0.60
2019-01-15T03:17:46.712Z,0.60
2019-01-15T03:18:51.960Z,0.50
2019-01-15T03:19:56.708Z,0.60
2019-01-15T03:21:01.441Z,0.60
2019-01-15T03:22:06.220Z,0.60
2019-01-15T03:23:11.061Z,0.60
2019-01-15T03:24:15.782Z,0.60
2019-01-15T03:25:20.525Z,0.60
2019-01-15T03:26:25.293Z,0.60
2019-01-15T03:27:30.037Z,0.60
2019-01-15T03:28:34.781Z,0.60
2019-01-15T03:29:39.528Z,0.50
2019-01-15T03:30:44.242Z,0.60
2019-01-15T03:31:48.996Z,0.60
2019-01-15T03:32:54.307Z,0.60
2019-01-15T03:33:59.128Z,0.60
2019-01-15T03:35:03.865Z,0.50
2019-01-15T03:36:08.574Z,0.50
2019-01-15T03:37:13.405Z,0.50
2019-01-15T03:38:18.273Z,0.50
2019-01-15T03:39:23.022Z,0.50
2019-01-15T03:40:28.220Z,0.50
2019-01-15T03:41:32.929Z,0.50
2019-01-15T03:42:37.738Z,0.50
2019-01-15T03:43:42.398Z,0.50
2019-01-15T03:44:47.148Z,0.50
2019-01-15T03:45:51.840Z,0.40
2019-01-15T03:46:56.589Z,0.40
2019-01-15T03:48:01.401Z,0.40
2019-01-15T03:49:06.261Z,0.40
2019-01-15T03:50:11.161Z,0.40
2019-01-15T03:51:15.901Z,0.30
2019-01-15T03:52:20.703Z,0.30
2019-01-15T03:53:25.473Z,0.40
2019-01-15T03:54:30.273Z,0.40
2019-01-15T03:55:34.993Z,0.30
2019-01-15T03:56:39.741Z,0.40
2019-01-15T03:57:44.825Z,0.30
2019-01-15T03:58:49.661Z,0.30
2019-01-15T03:59:54.386Z,0.30
2019-01-15T04:00:59.132Z,0.30
2019-01-15T04:02:03.969Z,0.30
2019-01-15T04:03:08.839Z,0.30
2019-01-15T04:04:13.623Z,0.30
2019-01-15T04:05:18.871Z,0.30
2019-01-15T04:06:23.640Z,0.40
2019-01-15T04:07:28.510Z,0.30
2019-01-15T04:08:33.237Z,0.30
2019-01-15T04:09:38.189Z,0.30
2019-01-15T04:10:42.953Z,0.30
2019-01-15T04:11:47.688Z,0.30
2019-01-15T04:12:52.469Z,0.30
2019-01-15T04:13:57.221Z,0.30
2019-01-15T04:15:01.975Z,0.30
2019-01-15T04:16:06.821Z,0.30
2019-01-15T04:17:11.612Z,0.20
2019-01-15T04:18:16.373Z,0.20
2019-01-15T04:19:21.077Z,0.20
2019-01-15T04:20:26.005Z,0.10
2019-01-15T04:21:30.738Z,0.20
2019-01-15T04:22:35.512Z,0.20
2019-01-15T04:23:40.308Z,0.20
2019-01-15T04:24:45.041Z,0.20
2019-01-15T04:25:49.754Z,0.20
2019-01-15T04:26:54.488Z,0.20
2019-01-15T04:27:59.203Z,0.30
2019-01-15T04:29:03.932Z,0.30
2019-01-15T04:30:11.721Z,0.30
2019-01-15T04:31:16.479Z,0.20
2019-01-15T04:32:21.213Z,0.20
2019-01-15T04:33:26.013Z,0.20
2019-01-15T04:34:30.742Z,0.10
2019-01-15T04:35:35.491Z,0.10
2019-01-15T04:36:40.277Z,0.10
2019-01-15T04:37:45.136Z,0.20
2019-01-15T04:38:49.833Z,0.10
2019-01-15T04:39:54.557Z,0.10
2019-01-15T04:40:59.283Z,0.10
2019-01-15T04:42:04.325Z,0.20
2019-01-15T04:43:09.094Z,0.20
2019-01-15T04:44:13.827Z,0.20
2019-01-15T04:45:20.418Z,0.20
2019-01-15T04:46:25.124Z,0.20
2019-01-15T04:47:29.873Z,0.20
2019-01-15T04:48:34.625Z,0.20
2019-01-15T04:49:39.347Z,0.20
2019-01-15T04:50:44.096Z,0.10
2019-01-15T04:51:48.855Z,0.10
2019-01-15T04:53:00.724Z,0.10
2019-01-15T04:54:05.679Z,0.20
2019-01-15T04:55:10.753Z,0.20
2019-01-15T04:56:15.501Z,0.20
2019-01-15T04:57:20.319Z,0.20
2019-01-15T04:58:25.096Z,0.20
2019-01-15T04:59:30.236Z,0.20
2019-01-15T05:00:34.996Z,0.20
2019-01-15T05:01:39.745Z,0.20
2019-01-15T05:02:44.692Z,0.20
2019-01-15T05:03:49.799Z,0.20
2019-01-15T05:04:54.736Z,0.20
2019-01-15T05:05:59.484Z,0.20
2019-01-15T05:07:04.311Z,0.20
2019-01-15T05:08:09.080Z,0.20
2019-01-15T05:09:13.865Z,0.20
2019-01-15T05:10:18.625Z,0.20
2019-01-15T05:11:23.365Z,0.20
2019-01-15T05:12:28.107Z,0.20
2019-01-15T05:13:32.924Z,0.20
2019-01-15T05:14:37.644Z,0.20
2019-01-15T05:15:42.392Z,0.30
2019-01-15T05:16:47.174Z,0.30
2019-01-15T05:17:51.926Z,0.20
2019-01-15T05:18:56.671Z,0.20
2019-01-15T05:20:01.389Z,0.10
2019-01-15T05:21:06.173Z,0.20
2019-01-15T05:22:10.904Z,0.20
2019-01-15T05:23:15.757Z,0.20
2019-01-15T05:24:20.537Z,0.20
2019-01-15T05:25:25.347Z,0.20
2019-01-15T05:26:31.621Z,0.10
2019-01-15T05:27:36.365Z,0.10
2019-01-15T05:28:41.124Z,0.20
2019-01-15T05:29:45.918Z,0.30
2019-01-15T05:30:50.644Z,0.30
2019-01-15T05:31:55.412Z,0.30
2019-01-15T05:33:00.207Z,0.30
2019-01-15T05:34:05.259Z,0.30
2019-01-15T05:35:10.409Z,0.30
2019-01-15T05:36:15.133Z,0.20
2019-01-15T05:37:19.874Z,0.20
2019-01-15T05:38:24.604Z,0.20
2019-01-15T05:39:29.364Z,0.20
2019-01-15T05:40:34.101Z,0.20
2019-01-15T05:41:38.833Z,0.20
2019-01-15T05:42:43.726Z,0.20
2019-01-15T05:43:48.494Z,0.10
2019-01-15T05:44:54.848Z,0.10
2019-01-15T05:45:59.576Z,0.10
2019-01-15T05:47:04.528Z,0.20
2019-01-15T05:48:19.781Z,0.20
2019-01-15T05:49:24.543Z,0.20
2019-01-15T05:50:48.144Z,0.20
2019-01-15T05:51:52.849Z,0.20
2019-01-15T05:52:57.593Z,0.30
2019-01-15T05:54:02.458Z,0.20
2019-01-15T05:55:08.944Z,0.20
2019-01-15T05:56:13.705Z,0.30
2019-01-15T05:57:18.480Z,0.30
2019-01-15T05:58:23.224Z,0.30
2019-01-15T05:59:29.500Z,0.30
2019-01-15T06:00:34.196Z,0.30
2019-01-15T06:01:38.905Z,0.30
2019-01-15T06:02:43.659Z,0.40
2019-01-15T06:03:48.390Z,0.40
2019-01-15T06:04:53.265Z,0.30
2019-01-15T06:05:58.040Z,0.40
2019-01-15T06:07:02.805Z,0.40
2019-01-15T06:08:07.568Z,0.40
2019-01-15T06:09:12.471Z,0.50
2019-01-15T06:10:17.288Z,0.50
2019-01-15T06:11:22.012Z,0.50
2019-01-15T06:12:26.752Z,0.50
2019-01-15T06:13:31.540Z,0.50
2019-01-15T06:14:36.316Z,0.50
2019-01-15T06:15:41.089Z,0.50
2019-01-15T06:16:45.829Z,0.50
2019-01-15T06:17:50.600Z,0.50
2019-01-15T06:18:55.537Z,0.50
2019-01-15T06:20:00.352Z,0.50
2019-01-15T06:21:05.351Z,0.50
2019-01-15T06:22:10.097Z,0.50
2019-01-15T06:23:14.828Z,0.50
2019-01-15T06:24:19.548Z,0.40
2019-01-15T06:25:24.349Z,0.40
2019-01-15T06:26:29.181Z,0.40
2019-01-15T06:27:34.016Z,0.50
2019-01-15T06:28:38.780Z,0.50
2019-01-15T06:29:43.540Z,0.40
2019-01-15T06:30:48.590Z,0.40
2019-01-15T06:31:53.678Z,0.40
2019-01-15T06:32:58.795Z,0.40
2019-01-15T06:34:03.832Z,0.30
2019-01-15T06:35:08.872Z,0.30
2019-01-15T06:36:14.313Z,0.40
2019-01-15T06:37:19.355Z,0.40
2019-01-15T06:38:24.241Z,0.40
2019-01-15T06:39:29.354Z,0.40
2019-01-15T06:40:34.232Z,0.40
2019-01-15T06:41:39.273Z,0.30
2019-01-15T06:42:44.393Z,0.30
2019-01-15T06:43:50.197Z,0.30
2019-01-15T06:44:55.073Z,0.30
2019-01-15T06:46:02.016Z,0.30
2019-01-15T06:47:06.769Z,0.40
2019-01-15T06:48:11.576Z,0.30
2019-01-15T06:49:16.336Z,0.40
2019-01-15T06:50:21.196Z,0.40
2019-01-15T06:51:26.042Z,0.30
2019-01-15T06:52:30.788Z,0.40
2019-01-15T06:53:35.541Z,0.30
2019-01-15T06:54:40.477Z,0.30
2019-01-15T06:55:45.346Z,0.30
2019-01-15T06:56:50.105Z,0.40
2019-01-15T06:57:55.115Z,0.30
2019-01-15T06:58:59.913Z,0.30
2019-01-15T07:00:06.543Z,0.30
2019-01-15T07:01:11.465Z,0.30
2019-01-15T07:02:16.305Z,0.20
2019-01-15T07:03:21.776Z,0.20
2019-01-15T07:04:26.901Z,0.30
2019-01-15T07:05:32.036Z,0.40
2019-01-15T07:06:37.044Z,0.30
2019-01-15T07:07:42.100Z,0.30
2019-01-15T07:08:47.413Z,0.40
2019-01-15T07:09:52.585Z,0.40
2019-01-15T07:10:57.470Z,0.40
2019-01-15T07:12:02.576Z,0.40
2019-01-15T07:13:07.773Z,0.40
2019-01-15T07:14:12.678Z,0.40
2019-01-15T07:15:17.931Z,0.40
2019-01-15T07:16:23.053Z,0.40
2019-01-15T07:17:28.080Z,0.40
2019-01-15T07:18:33.054Z,0.40
2019-01-15T07:19:37.940Z,0.40
2019-01-15T07:20:43.052Z,0.30
2019-01-15T07:21:48.255Z,0.40
2019-01-15T07:22:53.389Z,0.40
2019-01-15T07:23:58.201Z,0.40
2019-01-15T07:25:03.291Z,0.40
2019-01-15T07:26:08.497Z,0.40
2019-01-15T07:27:13.366Z,0.40
2019-01-15T07:28:18.504Z,0.40
2019-01-15T07:29:23.718Z,0.40
2019-01-15T07:30:35.648Z,0.40
2019-01-15T07:31:40.917Z,0.40
2019-01-15T07:32:45.792Z,0.50
2019-01-15T07:33:50.724Z,0.50
2019-01-15T07:34:55.553Z,0.50
2019-01-15T07:36:00.394Z,0.50
2019-01-15T07:37:05.272Z,0.50
2019-01-15T07:38:10.440Z,0.50
2019-01-15T07:39:15.257Z,0.50
2019-01-15T07:40:20.136Z,0.60
2019-01-15T07:41:24.971Z,0.60
2019-01-15T07:42:29.964Z,0.60
2019-01-15T07:43:34.884Z,0.60
2019-01-15T07:44:39.667Z,0.60
2019-01-15T07:45:44.507Z,0.60
2019-01-15T07:46:49.349Z,0.60
2019-01-15T07:47:54.255Z,0.60
2019-01-15T07:48:59.134Z,0.60
2019-01-15T07:50:04.717Z,0.60
2019-01-15T07:51:09.645Z,0.70
2019-01-15T07:52:14.538Z,0.70
2019-01-15T07:53:19.488Z,0.70
2019-01-15T07:54:24.332Z,0.70
2019-01-15T07:55:29.280Z,0.70
2019-01-15T07:56:34.117Z,0.70
2019-01-15T07:57:39.088Z,0.70
2019-01-15T07:58:44.029Z,0.70
2019-01-15T07:59:48.860Z,0.70
2019-01-15T08:00:53.780Z,0.70
2019-01-15T08:01:58.650Z,0.70
2019-01-15T08:03:03.533Z,0.70
2019-01-15T08:04:10.942Z,0.70
2019-01-15T08:05:16.951Z,0.70
2019-01-15T08:06:21.819Z,0.80
2019-01-15T08:07:26.598Z,0.80
2019-01-15T08:08:31.405Z,0.80
2019-01-15T08:09:36.140Z,0.80
2019-01-15T08:10:41.750Z,0.80
2019-01-15T08:11:48.420Z,0.90
2019-01-15T08:12:54.034Z,0.90
2019-01-15T08:13:58.825Z,0.90
2019-01-15T08:15:03.712Z,0.90
2019-01-15T08:16:08.612Z,0.90
2019-01-15T08:17:13.777Z,1.00
2019-01-15T08:18:18.659Z,1.00
2019-01-15T08:19:23.545Z,1.00
2019-01-15T08:20:28.323Z,1.00
2019-01-15T08:21:39.285Z,1.00
2019-01-15T08:22:44.174Z,1.00
2019-01-15T08:23:48.963Z,1.00
2019-01-15T08:24:53.771Z,1.00
2019-01-15T08:25:58.723Z,1.00
2019-01-15T08:27:03.470Z,1.00
2019-01-15T08:28:08.461Z,1.00
2019-01-15T08:29:13.293Z,1.00
2019-01-15T08:30:20.732Z,1.00
2019-01-15T08:31:25.532Z,1.00
2019-01-15T08:32:30.485Z,1.00
2019-01-15T08:33:35.207Z,1.00
2019-01-15T08:34:39.986Z,1.00
2019-01-15T08:35:44.891Z,1.00
2019-01-15T08:36:49.805Z,1.00
2019-01-15T08:37:54.702Z,1.00
2019-01-15T08:38:59.511Z,1.10
2019-01-15T08:40:04.925Z,1.10
2019-01-15T08:41:09.813Z,1.10
2019-01-15T08:42:14.691Z,1.20
2019-01-15T08:43:19.410Z,1.20
2019-01-15T08:44:24.653Z,1.20
2019-01-15T08:45:29.413Z,1.20
2019-01-15T08:46:34.336Z,1.20
2019-01-15T08:47:45.604Z,1.10
2019-01-15T08:48:50.411Z,1.20
2019-01-15T08:49:55.134Z,1.20
2019-01-15T08:51:00.197Z,1.20
2019-01-15T08:52:05.124Z,1.20
2019-01-15T08:53:10.484Z,1.20
2019-01-15T08:54:15.419Z,1.20
2019-01-15T08:55:20.330Z,1.20
2019-01-15T08:56:25.306Z,1.10
2019-01-15T08:57:30.053Z,1.20
2019-01-15T08:58:34.853Z,1.20
2019-01-15T08:59:39.696Z,1.20
2019-01-15T09:00:44.498Z,1.20
2019-01-15T09:01:49.376Z,1.20
2019-01-15T09:02:54.064Z,1.20
2019-01-15T09:03:59.005Z,1.10
2019-01-15T09:05:03.885Z,1.20
2019-01-15T09:06:08.795Z,1.20
2019-01-15T09:07:13.653Z,1.20
2019-01-15T09:08:18.427Z,1.20
2019-01-15T09:09:23.253Z,1.30
2019-01-15T09:10:28.094Z,1.20
2019-01-15T09:11:32.863Z,1.20
2019-01-15T09:12:37.682Z,1.30
2019-01-15T09:13:42.605Z,1.30
2019-01-15T09:14:47.421Z,1.30
2019-01-15T09:15:52.415Z,1.30
2019-01-15T09:16:57.329Z,1.30
2019-01-15T09:18:05.116Z,1.30
2019-01-15T09:19:09.927Z,1.30
2019-01-15T09:20:17.373Z,1.30
2019-01-15T09:21:22.296Z,1.30
2019-01-15T09:22:27.155Z,1.30
2019-01-15T09:23:32.005Z,1.40
2019-01-15T09:24:36.848Z,1.40
2019-01-15T09:25:41.780Z,1.40
2019-01-15T09:26:46.691Z,1.40
2019-01-15T09:27:51.622Z,1.40
2019-01-15T09:28:56.493Z,1.50
2019-01-15T09:30:01.282Z,1.50
2019-01-15T09:31:06.086Z,1.40
2019-01-15T09:32:11.018Z,1.50
2019-01-15T09:33:15.773Z,1.50
2019-01-15T09:34:20.645Z,1.50
2019-01-15T09:35:25.422Z,1.50
2019-01-15T09:36:30.334Z,1.60
2019-01-15T09:37:35.965Z,1.60
2019-01-15T09:38:40.736Z,1.60
2019-01-15T09:39:45.652Z,1.60
2019-01-15T09:40:50.583Z,1.60
2019-01-15T09:41:55.523Z,1.70
2019-01-15T09:43:00.488Z,1.70
2019-01-15T09:44:05.450Z,1.70
2019-01-15T09:45:12.733Z,1.80
2019-01-15T09:46:17.704Z,1.80
2019-01-15T09:47:22.671Z,1.80
2019-01-15T09:48:30.539Z,1.90
2019-01-15T09:49:35.411Z,1.90
2019-01-15T09:50:40.208Z,2.00
2019-01-15T09:51:45.136Z,2.00
2019-01-15T09:52:49.856Z,2.10
2019-01-15T09:53:54.743Z,2.10
2019-01-15T09:54:59.582Z,2.10
2019-01-15T09:56:04.425Z,2.10
2019-01-15T09:57:09.216Z,2.20
2019-01-15T09:58:14.059Z,2.20
2019-01-15T09:59:18.850Z,2.20
2019-01-15T10:00:23.772Z,2.30
2019-01-15T10:01:28.709Z,2.40
2019-01-15T10:02:33.571Z,2.40
2019-01-15T10:03:38.377Z,2.40
2019-01-15T10:04:43.216Z,2.50
2019-01-15T10:05:48.088Z,2.60
2019-01-15T10:06:52.925Z,2.60
2019-01-15T10:07:57.812Z,2.60
2019-01-15T10:09:02.698Z,2.70
2019-01-15T10:10:09.175Z,2.60
2019-01-15T10:11:14.052Z,2.70
2019-01-15T10:12:18.978Z,2.70
2019-01-15T10:13:23.806Z,2.70
2019-01-15T10:14:28.646Z,2.70
2019-01-15T10:15:33.443Z,2.60
2019-01-15T10:16:38.463Z,2.60
2019-01-15T10:17:43.347Z,2.60
2019-01-15T10:18:48.166Z,2.60
2019-01-15T10:19:52.975Z,2.60
2019-01-15T10:20:57.712Z,2.60
2019-01-15T10:22:03.297Z,2.60
2019-01-15T10:23:08.203Z,2.60
2019-01-15T10:24:13.010Z,2.60
2019-01-15T10:25:24.844Z,2.50
2019-01-15T10:26:29.686Z,2.50
2019-01-15T10:27:34.558Z,2.50
2019-01-15T10:28:39.447Z,2.50
2019-01-15T10:29:45.272Z,2.40
2019-01-15T10:31:37.251Z,2.40
2019-01-15T10:32:53.118Z,2.40
2019-01-15T10:34:02.906Z,2.30
2019-01-15T10:35:25.150Z,2.30
2019-01-15T10:36:28.097Z,2.30
2019-01-15T10:37:33.005Z,2.30
2019-01-15T10:38:37.860Z,2.20
2019-01-15T10:39:43.204Z,2.20
2019-01-15T10:40:48.558Z,2.20
2019-01-15T10:41:53.445Z,2.20
2019-01-15T10:42:58.204Z,2.20
2019-01-15T10:44:03.092Z,2.20
2019-01-15T10:45:08.778Z,2.30
2019-01-15T10:46:13.654Z,2.30
2019-01-15T10:47:18.576Z,2.40
2019-01-15T10:48:23.500Z,2.40
2019-01-15T10:49:28.364Z,2.30
2019-01-15T10:50:33.258Z,2.20
2019-01-15T10:51:38.137Z,2.20
2019-01-15T10:52:42.937Z,2.20
2019-01-15T10:53:47.857Z,2.20
2019-01-15T10:54:52.693Z,2.20
2019-01-15T10:55:57.449Z,2.20
2019-01-15T10:57:02.245Z,2.20
2019-01-15T10:58:07.214Z,2.20
2019-01-15T10:59:12.213Z,2.20
2019-01-15T11:00:17.245Z,2.20
2019-01-15T11:01:21.990Z,2.20
2019-01-15T11:02:26.972Z,2.30
2019-01-15T11:03:31.934Z,2.30
2019-01-15T11:04:36.819Z,2.30
2019-01-15T11:05:41.653Z,2.20
2019-01-15T11:06:46.535Z,2.20
2019-01-15T11:07:51.525Z,2.20
2019-01-15T11:08:56.333Z,2.20
2019-01-15T11:10:01.289Z,2.20
2019-01-15T11:11:06.252Z,2.20
2019-01-15T11:12:11.135Z,2.20
2019-01-15T11:13:16.061Z,2.20
2019-01-15T11:14:21.125Z,2.20
2019-01-15T11:15:25.979Z,2.30
2019-01-15T11:16:30.733Z,2.30
2019-01-15T11:17:35.645Z,2.30
2019-01-15T11:18:40.525Z,2.30
2019-01-15T11:19:45.326Z,2.30
2019-01-15T11:20:50.336Z,2.30
2019-01-15T11:21:55.127Z,2.20
2019-01-15T11:23:00.099Z,2.30
2019-01-15T11:24:05.226Z,2.30
2019-01-15T11:25:11.384Z,2.40
2019-01-15T11:26:16.494Z,2.40
2019-01-15T11:27:21.288Z,2.50
2019-01-15T11:28:26.085Z,2.70
2019-01-15T11:29:30.927Z,3.10
2019-01-15T11:30:35.897Z,3.20
2019-01-15T11:31:40.733Z,3.50
2019-01-15T11:32:45.691Z,3.70
2019-01-15T11:33:50.498Z,3.70
2019-01-15T11:34:55.501Z,4.00
2019-01-15T11:36:00.450Z,4.30
2019-01-15T11:37:05.318Z,4.50
2019-01-15T11:38:10.257Z,4.70
2019-01-15T11:39:15.088Z,4.90
2019-01-15T11:42:40.773Z,4.60
2019-01-15T11:43:45.576Z,4.80
2019-01-15T11:44:50.404Z,5.00
2019-01-15T11:45:55.170Z,5.20
2019-01-15T11:47:00.012Z,5.00
2019-01-15T11:48:05.519Z,4.70
2019-01-15T11:49:10.313Z,4.60
2019-01-15T11:50:17.132Z,4.40
2019-01-15T11:51:21.890Z,4.30
2019-01-15T11:52:26.844Z,4.30
2019-01-15T11:53:31.692Z,4.20
2019-01-15T11:54:36.670Z,4.30
2019-01-15T11:55:41.612Z,4.30
2019-01-15T11:56:46.568Z,4.50
2019-01-15T11:57:51.454Z,4.80
2019-01-15T11:58:56.478Z,5.00
2019-01-15T12:00:01.448Z,4.90
2019-01-15T12:01:28.297Z,5.10
2019-01-15T12:02:38.212Z,5.20
2019-01-15T12:04:00.647Z,5.50
2019-01-15T12:05:24.484Z,6.10
2019-01-15T12:06:52.076Z,6.80
2019-01-15T12:08:34.685Z,7.60
2019-01-15T12:10:26.530Z,8.80
2019-01-15T12:11:48.244Z,9.10
2019-01-15T12:13:10.534Z,9.90
2019-01-15T12:14:32.940Z,9.50
2019-01-15T12:16:02.508Z,9.60
2019-01-15T12:17:24.981Z,9.50
2019-01-15T12:18:48.728Z,9.10
2019-01-15T12:20:21.463Z,7.80
2019-01-15T12:21:48.170Z,7.10
2019-01-15T12:23:12.039Z,6.70
2019-01-15T12:24:53.723Z,5.70
2019-01-15T12:26:15.671Z,5.60
2019-01-15T12:27:39.382Z,4.50
2019-01-15T12:29:14.977Z,4.10
2019-01-15T12:30:41.669Z,4.00
2019-01-15T12:32:08.333Z,3.70
2019-01-15T12:33:40.236Z,3.60
2019-01-15T12:35:06.844Z,3.20
2019-01-15T12:36:48.527Z,3.00
2019-01-15T12:38:12.166Z,3.00
2019-01-15T12:39:38.338Z,2.80
2019-01-15T12:40:52.204Z,2.80
2019-01-15T15:03:28.316Z,1.10
2019-01-15T15:05:01.204Z,1.10
2019-01-15T15:06:37.847Z,1.10
2019-01-15T15:08:01.565Z,1.10
2019-01-15T15:09:28.142Z,1.20
2019-01-15T15:10:40.247Z,1.20
2019-01-15T15:12:02.883Z,1.20
2019-01-15T15:13:26.040Z,1.20
2019-01-15T15:14:55.600Z,1.20
2019-01-15T15:16:37.523Z,1.20
2019-01-15T15:18:13.380Z,1.20
2019-01-15T15:19:40.060Z,1.20
2019-01-15T15:21:22.081Z,1.30
2019-01-15T15:22:49.948Z,1.30
2019-01-15T15:24:07.675Z,1.30
2019-01-15T15:25:37.333Z,1.20
2019-01-15T15:27:06.864Z,1.20
2019-01-15T15:28:45.808Z,1.20
2019-01-15T15:30:17.560Z,1.10
2019-01-15T15:31:40.359Z,0.90
2019-01-15T15:33:10.050Z,0.80
2019-01-15T15:34:33.921Z,0.60
2019-01-15T15:36:02.576Z,0.60
2019-01-15T15:37:38.340Z,0.50
2019-01-15T15:39:00.397Z,0.40
2019-01-15T15:40:30.734Z,0.20
2019-01-15T15:41:52.788Z,0.10
2019-01-15T15:43:26.321Z,0.20
2019-01-15T15:44:44.977Z,0.10
2019-01-15T15:46:11.135Z,0.10
2019-01-15T15:47:31.322Z,0.00
2019-01-15T15:49:08.287Z,0.00
2019-01-15T15:50:37.445Z,0.00
2019-01-15T15:51:59.821Z,0.00
2019-01-15T15:53:23.406Z,-0.10
2019-01-15T15:54:50.166Z,0.00
2019-01-15T15:56:12.560Z,0.00
2019-01-15T15:57:39.128Z,0.00
2019-01-15T15:58:56.557Z,-0.10
2019-01-15T16:00:29.226Z,-0.10
2019-01-15T16:01:51.518Z,0.00
2019-01-15T16:03:30.208Z,0.00
2019-01-15T16:04:59.810Z,0.00
2019-01-15T16:06:28.943Z,0.00
2019-01-15T16:07:51.304Z,0.00
2019-01-15T16:09:13.385Z,0.00
2019-01-15T16:10:39.555Z,0.10
2019-01-15T16:12:03.406Z,0.10
2019-01-15T16:13:25.881Z,0.10
2019-01-15T16:14:56.163Z,0.10
2019-01-15T16:16:19.215Z,0.10
2019-01-15T16:17:43.119Z,0.10
2019-01-15T16:19:16.102Z,0.10
2019-01-15T16:20:45.750Z,0.10
2019-01-15T16:22:08.512Z,0.10
2019-01-15T16:23:31.159Z,0.10
2019-01-15T16:24:57.855Z,0.20
2019-01-15T16:26:33.850Z,0.20
2019-01-15T16:27:56.000Z,0.10
2019-01-15T16:29:18.427Z,0.20
2019-01-15T16:31:00.366Z,0.20
2019-01-15T16:32:35.004Z,0.20
2019-01-15T16:33:57.280Z,0.20
2019-01-15T16:35:19.553Z,0.20
2019-01-15T16:36:43.376Z,0.10
2019-01-15T16:38:20.197Z,0.00
2019-01-15T16:39:42.413Z,-0.10
2019-01-15T16:41:11.793Z,0.00
2019-01-15T16:42:44.554Z,-0.10
2019-01-15T16:44:17.402Z,-0.10
2019-01-15T16:45:53.393Z,-0.10
2019-01-15T16:47:17.116Z,-0.10
2019-01-15T16:48:37.216Z,-0.10
2019-01-15T16:49:59.686Z,-0.10
2019-01-15T16:51:29.202Z,0.00
2019-01-15T16:53:11.179Z,-0.10
2019-01-15T16:54:32.409Z,0.00
2019-01-15T16:55:55.126Z,0.00
2019-01-15T16:57:19.042Z,0.00
2019-01-15T16:58:51.781Z,0.10
2019-01-15T17:00:18.501Z,0.00
2019-01-15T17:02:02.818Z,0.00
2019-01-15T17:03:25.711Z,0.00
2019-01-15T17:05:01.392Z,0.00
2019-01-15T17:06:24.257Z,0.00
2019-01-15T17:07:42.975Z,0.00
2019-01-15T17:09:13.063Z,-0.10
2019-01-15T17:10:37.132Z,0.00
2019-01-15T17:12:03.541Z,-0.10
2019-01-15T17:13:36.278Z,0.00
2019-01-15T17:15:06.917Z,0.00
2019-01-15T17:16:33.740Z,0.10
2019-01-15T17:17:48.740Z,0.00
2019-01-15T17:19:18.652Z,0.00
2019-01-15T17:20:41.383Z,0.00
2019-01-15T17:22:08.813Z,0.00
2019-01-15T17:23:30.260Z,0.00
2019-01-15T17:25:07.593Z,0.10
2019-01-15T17:26:34.653Z,0.10
2019-01-15T17:28:07.325Z,0.00
2019-01-15T17:29:21.299Z,0.00
2019-01-15T17:30:44.095Z,0.00
2019-01-15T17:32:13.896Z,0.10
2019-01-15T17:33:24.768Z,0.10
2019-01-15T17:34:48.470Z,0.10
2019-01-15T17:36:17.787Z,0.10
2019-01-15T17:37:59.622Z,0.10
2019-01-15T17:39:23.579Z,0.10
2019-01-15T17:40:45.838Z,0.10
2019-01-15T17:42:09.573Z,0.10